sensor_id;sensor_type;location;lat;lon;timestamp;pressure;altitude;pressure_sealevel;temperature;humidity
28000;BME280;15328;50.860;10.562;2023-02-13T00:04:26;98529.75;;;5.40;70.47
28000;BME280;15328;50.860;10.562;2023-02-13T00:09:27;98532.94;;;5.34;70.89
28000;BME280;15328;50.860;10.562;2023-02-13T00:14:27;98523.63;;;5.30;70.80
28000;BME280;15328;50.860;10.562;2023-02-13T00:19:27;98518.63;;;5.26;70.89
28000;BME280;15328;50.860;10.562;2023-02-13T00:24:28;98515.13;;;5.26;70.92
28000;BME280;15328;50.860;10.562;2023-02-13T00:29:28;98515.66;;;5.20;71.31
28000;BME280;15328;50.860;10.562;2023-02-13T00:34:28;98521.53;;;5.23;70.63
28000;BME280;15328;50.860;10.562;2023-02-13T00:39:29;98516.09;;;5.25;70.60
28000;BME280;15328;50.860;10.562;2023-02-13T00:44:29;98516.38;;;5.22;71.22
28000;BME280;15328;50.860;10.562;2023-02-13T00:49:29;98515.41;;;5.23;70.63
28000;BME280;15328;50.860;10.562;2023-02-13T00:54:30;98507.63;;;5.21;70.72
28000;BME280;15328;50.860;10.562;2023-02-13T00:59:30;98513.00;;;5.20;70.44
28000;BME280;15328;50.860;10.562;2023-02-13T01:04:30;98523.00;;;5.16;70.78
28000;BME280;15328;50.860;10.562;2023-02-13T01:09:31;98517.84;;;5.15;70.89
28000;BME280;15328;50.860;10.562;2023-02-13T01:14:31;98516.88;;;5.16;70.62
28000;BME280;15328;50.860;10.562;2023-02-13T01:19:32;98515.09;;;5.16;70.44
28000;BME280;15328;50.860;10.562;2023-02-13T01:24:32;98523.97;;;5.15;71.18
28000;BME280;15328;50.860;10.562;2023-02-13T01:29:33;98514.38;;;5.14;70.95
28000;BME280;15328;50.860;10.562;2023-02-13T01:34:33;98497.31;;;5.18;70.75
28000;BME280;15328;50.860;10.562;2023-02-13T01:39:34;98508.69;;;5.19;71.18
28000;BME280;15328;50.860;10.562;2023-02-13T01:44:48;98506.38;;;5.25;70.50
28000;BME280;15328;50.860;10.562;2023-02-13T01:49:49;98502.91;;;5.25;70.58
28000;BME280;15328;50.860;10.562;2023-02-13T01:54:54;98509.03;;;5.25;70.19
28000;BME280;15328;50.860;10.562;2023-02-13T02:00:07;98515.13;;;5.26;70.28
28000;BME280;15328;50.860;10.562;2023-02-13T02:05:08;98517.44;;;5.19;70.67
28000;BME280;15328;50.860;10.562;2023-02-13T02:10:13;98516.50;;;5.20;70.70
28000;BME280;15328;50.860;10.562;2023-02-13T02:15:15;98517.59;;;5.18;70.80
28000;BME280;15328;50.860;10.562;2023-02-13T02:20:44;98518.19;;;5.21;70.46
28000;BME280;15328;50.860;10.562;2023-02-13T02:26:09;98518.28;;;5.20;70.98
28000;BME280;15328;50.860;10.562;2023-02-13T02:31:58;98512.84;;;5.12;70.49
28000;BME280;15328;50.860;10.562;2023-02-13T02:42:33;98509.66;;;5.08;70.23
28000;BME280;15328;50.860;10.562;2023-02-13T02:47:50;98513.13;;;5.09;70.89
28000;BME280;15328;50.860;10.562;2023-02-13T02:53:16;98517.16;;;5.13;70.77
28000;BME280;15328;50.860;10.562;2023-02-13T02:58:37;98492.00;;;5.09;70.30
28000;BME280;15328;50.860;10.562;2023-02-13T03:03:57;98493.97;;;5.07;71.13
28000;BME280;15328;50.860;10.562;2023-02-13T03:09:39;98486.06;;;5.16;70.61
28000;BME280;15328;50.860;10.562;2023-02-13T03:14:59;98486.34;;;5.13;70.89
28000;BME280;15328;50.860;10.562;2023-02-13T03:25:29;98481.75;;;5.15;70.58
28000;BME280;15328;50.860;10.562;2023-02-13T03:36:11;98484.94;;;5.19;70.14
28000;BME280;15328;50.860;10.562;2023-02-13T03:41:43;98480.66;;;5.18;70.67
28000;BME280;15328;50.860;10.562;2023-02-13T03:46:49;98471.19;;;5.15;70.32
28000;BME280;15328;50.860;10.562;2023-02-13T03:57:32;98469.84;;;5.21;70.51
28000;BME280;15328;50.860;10.562;2023-02-13T04:03:15;98480.97;;;5.24;70.99
28000;BME280;15328;50.860;10.562;2023-02-13T04:08:17;98474.84;;;5.24;70.56
28000;BME280;15328;50.860;10.562;2023-02-13T04:18:26;98481.81;;;5.25;70.54
28000;BME280;15328;50.860;10.562;2023-02-13T04:23:28;98481.09;;;5.23;70.66
28000;BME280;15328;50.860;10.562;2023-02-13T04:28:28;98476.66;;;5.23;70.83
28000;BME280;15328;50.860;10.562;2023-02-13T04:33:29;98466.09;;;5.23;70.94
28000;BME280;15328;50.860;10.562;2023-02-13T04:38:29;98474.59;;;5.27;70.41
28000;BME280;15328;50.860;10.562;2023-02-13T04:43:29;98467.22;;;5.21;70.13
28000;BME280;15328;50.860;10.562;2023-02-13T04:48:31;98467.91;;;5.23;70.38
28000;BME280;15328;50.860;10.562;2023-02-13T04:53:31;98453.75;;;5.24;70.25
28000;BME280;15328;50.860;10.562;2023-02-13T04:58:32;98445.91;;;5.13;70.17
28000;BME280;15328;50.860;10.562;2023-02-13T05:03:32;98445.06;;;5.03;69.75
28000;BME280;15328;50.860;10.562;2023-02-13T05:08:33;98442.97;;;4.96;69.83
28000;BME280;15328;50.860;10.562;2023-02-13T05:13:33;98448.75;;;4.90;69.55
28000;BME280;15328;50.860;10.562;2023-02-13T05:18:33;98453.44;;;4.77;69.67
28000;BME280;15328;50.860;10.562;2023-02-13T05:23:34;98459.38;;;4.70;69.24
28000;BME280;15328;50.860;10.562;2023-02-13T05:28:34;98460.03;;;4.62;70.47
28000;BME280;15328;50.860;10.562;2023-02-13T05:33:53;98460.81;;;4.53;69.26
28000;BME280;15328;50.860;10.562;2023-02-13T05:38:53;98451.69;;;4.36;69.97
28000;BME280;15328;50.860;10.562;2023-02-13T05:43:54;98450.88;;;4.35;69.87
28000;BME280;15328;50.860;10.562;2023-02-13T05:48:54;98458.72;;;4.26;69.88
28000;BME280;15328;50.860;10.562;2023-02-13T05:53:54;98459.63;;;4.15;69.75
28000;BME280;15328;50.860;10.562;2023-02-13T05:58:55;98461.22;;;4.07;69.62
28000;BME280;15328;50.860;10.562;2023-02-13T06:03:56;98469.69;;;3.89;69.30
28000;BME280;15328;50.860;10.562;2023-02-13T06:08:56;98462.22;;;3.73;69.15
28000;BME280;15328;50.860;10.562;2023-02-13T06:13:56;98466.94;;;3.59;70.12
28000;BME280;15328;50.860;10.562;2023-02-13T06:18:57;98462.28;;;3.51;69.60
28000;BME280;15328;50.860;10.562;2023-02-13T06:23:57;98471.63;;;3.44;69.96
28000;BME280;15328;50.860;10.562;2023-02-13T06:28:58;98475.16;;;3.33;69.68
28000;BME280;15328;50.860;10.562;2023-02-13T06:33:58;98474.06;;;3.25;69.77
28000;BME280;15328;50.860;10.562;2023-02-13T06:38:58;98481.50;;;3.20;70.56
28000;BME280;15328;50.860;10.562;2023-02-13T06:43:59;98485.56;;;3.13;70.27
28000;BME280;15328;50.860;10.562;2023-02-13T06:48:59;98475.19;;;3.11;70.51
28000;BME280;15328;50.860;10.562;2023-02-13T06:53:59;98483.31;;;3.08;70.49
28000;BME280;15328;50.860;10.562;2023-02-13T06:59:00;98489.41;;;3.08;70.61
28000;BME280;15328;50.860;10.562;2023-02-13T07:04:00;98492.38;;;3.15;70.87
28000;BME280;15328;50.860;10.562;2023-02-13T07:09:02;98499.28;;;3.27;72.47
28000;BME280;15328;50.860;10.562;2023-02-13T07:14:02;98505.75;;;3.34;72.05
28000;BME280;15328;50.860;10.562;2023-02-13T07:19:03;98505.13;;;3.42;71.84
28000;BME280;15328;50.860;10.562;2023-02-13T07:24:04;98516.34;;;3.55;72.31
28000;BME280;15328;50.860;10.562;2023-02-13T07:29:04;98506.38;;;3.70;72.70
28000;BME280;15328;50.860;10.562;2023-02-13T07:34:05;98519.16;;;3.86;72.05
28000;BME280;15328;50.860;10.562;2023-02-13T07:39:06;98518.13;;;3.98;72.14
28000;BME280;15328;50.860;10.562;2023-02-13T07:44:06;98519.25;;;4.16;71.82
28000;BME280;15328;50.860;10.562;2023-02-13T07:49:07;98507.28;;;4.33;72.28
28000;BME280;15328;50.860;10.562;2023-02-13T07:54:07;98512.56;;;4.54;71.58
28000;BME280;15328;50.860;10.562;2023-02-13T07:59:08;98512.44;;;4.76;71.41
28000;BME280;15328;50.860;10.562;2023-02-13T08:04:09;98509.34;;;5.02;70.99
28000;BME280;15328;50.860;10.562;2023-02-13T08:09:17;98498.19;;;5.28;71.05
28000;BME280;15328;50.860;10.562;2023-02-13T08:14:36;98497.97;;;5.51;71.00
28000;BME280;15328;50.860;10.562;2023-02-13T08:19:37;98500.63;;;5.70;69.68
28000;BME280;15328;50.860;10.562;2023-02-13T08:24:37;98501.34;;;5.82;69.43
28000;BME280;15328;50.860;10.562;2023-02-13T08:29:37;98494.72;;;5.97;69.21
28000;BME280;15328;50.860;10.562;2023-02-13T08:34:38;98500.28;;;6.13;69.10
28000;BME280;15328;50.860;10.562;2023-02-13T08:39:38;98507.78;;;6.28;68.83
28000;BME280;15328;50.860;10.562;2023-02-13T08:44:38;98508.03;;;6.44;67.88
28000;BME280;15328;50.860;10.562;2023-02-13T08:49:41;98514.41;;;6.51;67.48
28000;BME280;15328;50.860;10.562;2023-02-13T08:54:42;98512.91;;;6.58;66.77
28000;BME280;15328;50.860;10.562;2023-02-13T08:59:42;98522.56;;;6.77;66.33
28000;BME280;15328;50.860;10.562;2023-02-13T09:04:43;98528.25;;;6.92;65.97
28000;BME280;15328;50.860;10.562;2023-02-13T09:09:43;98537.56;;;6.96;64.40
28000;BME280;15328;50.860;10.562;2023-02-13T09:14:43;98532.75;;;7.19;64.88
28000;BME280;15328;50.860;10.562;2023-02-13T09:19:44;98537.25;;;7.46;64.11
28000;BME280;15328;50.860;10.562;2023-02-13T09:24:45;98538.94;;;7.64;63.38
28000;BME280;15328;50.860;10.562;2023-02-13T09:29:46;98533.53;;;8.01;62.31
28000;BME280;15328;50.860;10.562;2023-02-13T09:34:46;98531.97;;;8.26;61.79
28000;BME280;15328;50.860;10.562;2023-02-13T09:39:46;98527.78;;;8.59;61.33
28000;BME280;15328;50.860;10.562;2023-02-13T09:44:47;98532.31;;;8.93;60.92
28000;BME280;15328;50.860;10.562;2023-02-13T09:49:54;98544.53;;;9.96;59.48
28000;BME280;15328;50.860;10.562;2023-02-13T09:54:56;98544.50;;;11.73;55.91
28000;BME280;15328;50.860;10.562;2023-02-13T10:00:38;98541.13;;;13.61;49.87
28000;BME280;15328;50.860;10.562;2023-02-13T10:05:52;98544.75;;;15.45;45.51
28000;BME280;15328;50.860;10.562;2023-02-13T10:16:07;98548.63;;;18.15;36.98
28000;BME280;15328;50.860;10.562;2023-02-13T10:21:10;98559.09;;;19.00;34.43
28000;BME280;15328;50.860;10.562;2023-02-13T10:26:19;98553.13;;;19.96;33.62
28000;BME280;15328;50.860;10.562;2023-02-13T10:31:22;98550.84;;;20.59;30.54
28000;BME280;15328;50.860;10.562;2023-02-13T10:36:26;98547.63;;;21.04;28.56
28000;BME280;15328;50.860;10.562;2023-02-13T10:41:49;98548.34;;;21.11;28.05
28000;BME280;15328;50.860;10.562;2023-02-13T10:52:01;98541.44;;;21.27;27.46
28000;BME280;15328;50.860;10.562;2023-02-13T10:57:18;98546.91;;;19.59;29.46
28000;BME280;15328;50.860;10.562;2023-02-13T11:02:25;98532.84;;;17.74;31.83
28000;BME280;15328;50.860;10.562;2023-02-13T11:07:27;98530.66;;;16.39;34.51
28000;BME280;15328;50.860;10.562;2023-02-13T11:12:31;98529.88;;;15.43;36.88
28000;BME280;15328;50.860;10.562;2023-02-13T11:17:38;98524.38;;;14.89;38.87
28000;BME280;15328;50.860;10.562;2023-02-13T11:22:40;98519.50;;;14.49;39.31
28000;BME280;15328;50.860;10.562;2023-02-13T11:27:45;98515.91;;;13.85;39.99
28000;BME280;15328;50.860;10.562;2023-02-13T11:33:00;98505.03;;;13.86;41.42
28000;BME280;15328;50.860;10.562;2023-02-13T11:48:23;98503.00;;;15.02;38.47
28000;BME280;15328;50.860;10.562;2023-02-13T11:53:28;98500.06;;;14.62;39.10
28000;BME280;15328;50.860;10.562;2023-02-13T11:58:29;98489.88;;;15.07;40.06
28000;BME280;15328;50.860;10.562;2023-02-13T12:03:32;98490.56;;;15.22;37.59
28000;BME280;15328;50.860;10.562;2023-02-13T12:08:35;98489.19;;;15.74;37.11
28000;BME280;15328;50.860;10.562;2023-02-13T12:13:36;98486.66;;;16.33;36.75
28000;BME280;15328;50.860;10.562;2023-02-13T12:18:41;98487.31;;;16.49;35.61
28000;BME280;15328;50.860;10.562;2023-02-13T12:23:56;98484.59;;;16.29;36.71
28000;BME280;15328;50.860;10.562;2023-02-13T12:45:44;98460.00;;;16.25;36.20
28000;BME280;15328;50.860;10.562;2023-02-13T12:55:52;98460.72;;;15.80;37.02
28000;BME280;15328;50.860;10.562;2023-02-13T13:01:23;98463.25;;;15.94;37.43
28000;BME280;15328;50.860;10.562;2023-02-13T13:12:33;98451.63;;;15.74;37.34
28000;BME280;15328;50.860;10.562;2023-02-13T13:23:02;98435.69;;;17.38;35.09
28000;BME280;15328;50.860;10.562;2023-02-13T13:28:15;98436.25;;;18.29;31.89
28000;BME280;15328;50.860;10.562;2023-02-13T13:33:22;98428.84;;;20.14;30.02
28000;BME280;15328;50.860;10.562;2023-02-13T13:48:53;98432.13;;;21.16;27.87
28000;BME280;15328;50.860;10.562;2023-02-13T13:59:02;98424.94;;;20.52;28.36
28000;BME280;15328;50.860;10.562;2023-02-13T14:09:42;98420.03;;;19.40;30.60
28000;BME280;15328;50.860;10.562;2023-02-13T14:14:44;98418.84;;;19.00;30.66
28000;BME280;15328;50.860;10.562;2023-02-13T14:19:50;98424.00;;;17.70;32.67
28000;BME280;15328;50.860;10.562;2023-02-13T14:24:52;98416.19;;;16.64;34.68
28000;BME280;15328;50.860;10.562;2023-02-13T14:29:53;98415.53;;;15.83;36.30
28000;BME280;15328;50.860;10.562;2023-02-13T14:34:58;98403.25;;;15.06;37.95
28000;BME280;15328;50.860;10.562;2023-02-13T14:45:20;98383.97;;;13.78;41.94
28000;BME280;15328;50.860;10.562;2023-02-13T14:50:26;98392.72;;;13.50;42.46
28000;BME280;15328;50.860;10.562;2023-02-13T14:55:33;98384.53;;;13.52;42.47
28000;BME280;15328;50.860;10.562;2023-02-13T15:00:45;98377.84;;;13.12;43.21
28000;BME280;15328;50.860;10.562;2023-02-13T15:05:52;98370.34;;;12.71;44.76
28000;BME280;15328;50.860;10.562;2023-02-13T15:10:55;98369.44;;;12.12;45.95
28000;BME280;15328;50.860;10.562;2023-02-13T15:15:59;98359.16;;;11.86;46.28
28000;BME280;15328;50.860;10.562;2023-02-13T15:21:01;98365.28;;;11.40;48.08
28000;BME280;15328;50.860;10.562;2023-02-13T15:26:05;98371.56;;;11.25;47.84
28000;BME280;15328;50.860;10.562;2023-02-13T15:31:20;98368.53;;;10.97;48.44
28000;BME280;15328;50.860;10.562;2023-02-13T15:36:24;98369.84;;;10.53;49.91
28000;BME280;15328;50.860;10.562;2023-02-13T15:41:31;98363.75;;;10.29;50.53
28000;BME280;15328;50.860;10.562;2023-02-13T15:46:34;98364.56;;;10.05;51.58
28000;BME280;15328;50.860;10.562;2023-02-13T15:51:35;98371.38;;;9.83;52.46
28000;BME280;15328;50.860;10.562;2023-02-13T15:56:36;98366.91;;;9.67;52.48
28000;BME280;15328;50.860;10.562;2023-02-13T16:01:38;98367.72;;;9.51;52.74
28000;BME280;15328;50.860;10.562;2023-02-13T16:06:41;98371.00;;;9.29;53.54
28000;BME280;15328;50.860;10.562;2023-02-13T16:11:43;98376.09;;;9.06;53.64
28000;BME280;15328;50.860;10.562;2023-02-13T16:16:48;98356.75;;;8.80;54.44
28000;BME280;15328;50.860;10.562;2023-02-13T16:21:50;98357.34;;;8.65;54.99
28000;BME280;15328;50.860;10.562;2023-02-13T16:26:51;98357.81;;;8.53;55.17
28000;BME280;15328;50.860;10.562;2023-02-13T16:31:52;98376.47;;;8.43;55.69
28000;BME280;15328;50.860;10.562;2023-02-13T16:37:01;98375.88;;;8.31;55.27
28000;BME280;15328;50.860;10.562;2023-02-13T16:42:12;98367.88;;;8.23;56.21
28000;BME280;15328;50.860;10.562;2023-02-13T16:47:22;98366.13;;;8.14;56.49
28000;BME280;15328;50.860;10.562;2023-02-13T16:52:24;98375.56;;;8.09;56.38
28000;BME280;15328;50.860;10.562;2023-02-13T16:57:30;98371.19;;;7.99;56.72
28000;BME280;15328;50.860;10.562;2023-02-13T17:02:36;98379.81;;;8.01;55.87
28000;BME280;15328;50.860;10.562;2023-02-13T17:07:52;98385.91;;;7.76;56.75
28000;BME280;15328;50.860;10.562;2023-02-13T17:12:55;98378.84;;;7.67;56.54
28000;BME280;15328;50.860;10.562;2023-02-13T17:17:56;98384.47;;;7.64;56.38
28000;BME280;15328;50.860;10.562;2023-02-13T17:22:59;98382.78;;;7.63;55.97
28000;BME280;15328;50.860;10.562;2023-02-13T17:28:05;98391.34;;;7.57;56.91
28000;BME280;15328;50.860;10.562;2023-02-13T17:33:11;98396.28;;;7.52;56.47
28000;BME280;15328;50.860;10.562;2023-02-13T17:38:12;98389.91;;;7.62;56.10
28000;BME280;15328;50.860;10.562;2023-02-13T17:43:15;98386.66;;;7.51;56.46
28000;BME280;15328;50.860;10.562;2023-02-13T17:48:16;98386.44;;;7.44;56.65
28000;BME280;15328;50.860;10.562;2023-02-13T17:53:29;98378.56;;;7.34;57.13
28000;BME280;15328;50.860;10.562;2023-02-13T17:58:30;98382.72;;;7.37;57.11
28000;BME280;15328;50.860;10.562;2023-02-13T18:03:30;98397.69;;;7.28;57.61
28000;BME280;15328;50.860;10.562;2023-02-13T18:08:30;98397.09;;;7.34;57.16
28000;BME280;15328;50.860;10.562;2023-02-13T18:13:31;98394.66;;;7.23;57.67
28000;BME280;15328;50.860;10.562;2023-02-13T18:18:31;98391.94;;;7.15;58.36
28000;BME280;15328;50.860;10.562;2023-02-13T18:23:31;98396.81;;;7.10;58.35
28000;BME280;15328;50.860;10.562;2023-02-13T18:28:32;98387.81;;;7.03;58.57
28000;BME280;15328;50.860;10.562;2023-02-13T18:33:32;98390.63;;;7.01;58.28
28000;BME280;15328;50.860;10.562;2023-02-13T18:38:32;98395.00;;;6.83;58.96
28000;BME280;15328;50.860;10.562;2023-02-13T18:43:33;98394.47;;;6.79;59.27
28000;BME280;15328;50.860;10.562;2023-02-13T18:48:33;98384.03;;;6.78;59.12
28000;BME280;15328;50.860;10.562;2023-02-13T18:53:34;98381.56;;;6.76;59.35
28000;BME280;15328;50.860;10.562;2023-02-13T18:58:34;98380.03;;;6.74;59.51
28000;BME280;15328;50.860;10.562;2023-02-13T19:03:36;98378.50;;;6.71;59.73
28000;BME280;15328;50.860;10.562;2023-02-13T19:08:37;98375.72;;;6.73;59.45
28000;BME280;15328;50.860;10.562;2023-02-13T19:13:37;98370.88;;;6.68;59.70
28000;BME280;15328;50.860;10.562;2023-02-13T19:18:39;98360.97;;;6.70;59.81
28000;BME280;15328;50.860;10.562;2023-02-13T19:23:40;98358.78;;;6.66;59.74
28000;BME280;15328;50.860;10.562;2023-02-13T19:28:40;98365.72;;;6.67;59.41
28000;BME280;15328;50.860;10.562;2023-02-13T19:33:41;98366.88;;;6.64;59.65
28000;BME280;15328;50.860;10.562;2023-02-13T19:38:43;98363.84;;;6.59;60.08
28000;BME280;15328;50.860;10.562;2023-02-13T19:43:44;98360.63;;;6.56;60.03
28000;BME280;15328;50.860;10.562;2023-02-13T19:48:52;98365.06;;;6.65;59.84
28000;BME280;15328;50.860;10.562;2023-02-13T19:53:55;98366.06;;;6.54;60.13
28000;BME280;15328;50.860;10.562;2023-02-13T19:58:56;98357.72;;;6.59;60.03
28000;BME280;15328;50.860;10.562;2023-02-13T20:03:57;98367.00;;;6.63;59.56
28000;BME280;15328;50.860;10.562;2023-02-13T20:08:58;98374.00;;;6.54;59.83
28000;BME280;15328;50.860;10.562;2023-02-13T20:14:00;98376.72;;;6.35;61.16
28000;BME280;15328;50.860;10.562;2023-02-13T20:19:05;98364.19;;;6.27;61.44
28000;BME280;15328;50.860;10.562;2023-02-13T20:24:09;98362.69;;;6.25;61.54
28000;BME280;15328;50.860;10.562;2023-02-13T20:29:10;98359.22;;;6.24;62.06
28000;BME280;15328;50.860;10.562;2023-02-13T20:34:10;98361.16;;;6.32;61.85
28000;BME280;15328;50.860;10.562;2023-02-13T20:39:11;98353.78;;;6.26;62.26
28000;BME280;15328;50.860;10.562;2023-02-13T20:44:11;98353.06;;;6.33;61.98
28000;BME280;15328;50.860;10.562;2023-02-13T20:49:12;98354.06;;;6.23;62.43
28000;BME280;15328;50.860;10.562;2023-02-13T20:54:17;98352.25;;;6.33;62.54
28000;BME280;15328;50.860;10.562;2023-02-13T20:59:18;98356.28;;;6.27;62.73
28000;BME280;15328;50.860;10.562;2023-02-13T21:04:18;98359.75;;;6.28;62.05
28000;BME280;15328;50.860;10.562;2023-02-13T21:09:19;98358.50;;;6.32;62.03
28000;BME280;15328;50.860;10.562;2023-02-13T21:14:20;98352.78;;;6.27;62.25
28000;BME280;15328;50.860;10.562;2023-02-13T21:19:20;98345.31;;;6.22;62.30
28000;BME280;15328;50.860;10.562;2023-02-13T21:24:21;98348.50;;;6.26;62.67
28000;BME280;15328;50.860;10.562;2023-02-13T21:29:21;98346.28;;;6.31;61.96
28000;BME280;15328;50.860;10.562;2023-02-13T21:34:22;98340.25;;;6.29;62.21
28000;BME280;15328;50.860;10.562;2023-02-13T21:39:22;98333.06;;;6.21;62.32
28000;BME280;15328;50.860;10.562;2023-02-13T21:44:23;98327.50;;;6.24;62.25
28000;BME280;15328;50.860;10.562;2023-02-13T21:49:23;98328.06;;;6.18;62.52
28000;BME280;15328;50.860;10.562;2023-02-13T21:54:24;98330.00;;;6.26;62.12
28000;BME280;15328;50.860;10.562;2023-02-13T21:59:25;98336.84;;;6.18;62.52
28000;BME280;15328;50.860;10.562;2023-02-13T22:04:25;98344.19;;;6.25;62.41
28000;BME280;15328;50.860;10.562;2023-02-13T22:09:26;98340.00;;;6.32;61.81
28000;BME280;15328;50.860;10.562;2023-02-13T22:14:26;98340.97;;;6.31;61.40
28000;BME280;15328;50.860;10.562;2023-02-13T22:19:27;98340.84;;;6.23;61.47
28000;BME280;15328;50.860;10.562;2023-02-13T22:24:27;98329.59;;;6.20;61.70
28000;BME280;15328;50.860;10.562;2023-02-13T22:29:27;98341.59;;;6.15;61.65
28000;BME280;15328;50.860;10.562;2023-02-13T22:34:27;98338.78;;;6.16;61.19
28000;BME280;15328;50.860;10.562;2023-02-13T22:39:28;98341.84;;;6.22;60.84
28000;BME280;15328;50.860;10.562;2023-02-13T22:44:28;98338.91;;;6.25;61.10
28000;BME280;15328;50.860;10.562;2023-02-13T22:49:29;98348.91;;;6.31;61.05
28000;BME280;15328;50.860;10.562;2023-02-13T22:54:29;98342.66;;;6.32;60.96
28000;BME280;15328;50.860;10.562;2023-02-13T22:59:29;98345.84;;;6.35;61.01
28000;BME280;15328;50.860;10.562;2023-02-13T23:04:35;98348.03;;;6.40;60.45
28000;BME280;15328;50.860;10.562;2023-02-13T23:09:35;98334.81;;;6.40;60.77
28000;BME280;15328;50.860;10.562;2023-02-13T23:14:35;98333.16;;;6.39;60.43
28000;BME280;15328;50.860;10.562;2023-02-13T23:19:36;98343.03;;;6.37;60.71
28000;BME280;15328;50.860;10.562;2023-02-13T23:24:36;98338.44;;;6.39;60.72
28000;BME280;15328;50.860;10.562;2023-02-13T23:29:37;98338.47;;;6.29;60.63
28000;BME280;15328;50.860;10.562;2023-02-13T23:34:37;98334.28;;;6.27;60.96
28000;BME280;15328;50.860;10.562;2023-02-13T23:39:38;98343.63;;;6.31;61.06
28000;BME280;15328;50.860;10.562;2023-02-13T23:44:38;98342.84;;;6.11;60.41
28000;BME280;15328;50.860;10.562;2023-02-13T23:49:38;98350.81;;;5.92;60.13
28000;BME280;15328;50.860;10.562;2023-02-13T23:54:39;98348.31;;;5.71;60.74
28000;BME280;15328;50.860;10.562;2023-02-13T23:59:39;98347.38;;;5.52;61.31
